Cottonwood Heights, Utah
Current Conditions -  °F | °C
As of 8:53 PM on Friday 19 Dec 2014 (Local Time) from KSLC Reporting Station
Overcast Overcast  
Wind Chill: 42°   Ceiling: 7000
Heat Index: 42°   Visibility: 10mi
Dew Point: 30°   Wind: 3mph
Humidity: 62%   Direction: 210°SSW
Pressure: 30.13"   Gusts: NA
Location:  40.5945°N, 111.827°W
Report Text: KSLC 200353Z 21003KT 10SM FEW060 BKN070 OVC090 06/M01 A3013 RMK AO2 SLP204 SH DSNT W-N T00561011
Loading
Personal Weather Stations






























Interactive Weather Map New forecast layout! Learn more

10-Day Weather Forecast

Advertisements
Track Severe Weather on mobile